createdAt,value
2019-01-04T00:01:35.084Z,16.61
2019-01-04T00:04:18.773Z,16.59
2019-01-04T00:06:50.366Z,16.44
2019-01-04T00:09:22.059Z,16.52
2019-01-04T00:11:54.292Z,16.51
2019-01-04T00:14:26.310Z,16.52
2019-01-04T00:16:57.817Z,16.66
2019-01-04T00:19:29.602Z,16.70
2019-01-04T00:22:01.713Z,16.55
2019-01-04T00:24:32.477Z,16.55
2019-01-04T00:27:04.295Z,16.55
2019-01-04T00:29:36.305Z,16.56
2019-01-04T00:32:08.041Z,16.44
2019-01-04T00:34:39.742Z,16.37
2019-01-04T00:37:10.623Z,16.43
2019-01-04T00:39:42.334Z,16.61
2019-01-04T00:42:14.017Z,16.61
2019-01-04T00:44:45.774Z,16.65
2019-01-04T00:47:17.397Z,16.66
2019-01-04T00:49:49.368Z,16.63
2019-01-04T00:52:21.061Z,16.61
2019-01-04T00:54:54.814Z,16.58
2019-01-04T00:58:12.292Z,16.63
2019-01-04T01:02:00.393Z,16.57
2019-01-04T01:05:45.311Z,16.68
2019-01-04T01:10:12.742Z,16.66
2019-01-04T01:13:42.639Z,16.57
2019-01-04T01:17:29.790Z,16.44
2019-01-04T01:21:17.261Z,16.44
2019-01-04T01:25:03.717Z,16.45
2019-01-04T01:28:34.071Z,16.42
2019-01-04T01:32:26.814Z,16.44
2019-01-04T01:36:03.653Z,16.40
2019-01-04T01:39:47.785Z,16.35
2019-01-04T01:43:39.306Z,16.35
2019-01-04T01:46:56.053Z,16.50
2019-01-04T01:51:08.853Z,16.49
2019-01-04T01:53:47.874Z,16.38
2019-01-04T01:56:19.384Z,16.58
2019-01-04T01:58:51.072Z,16.52
2019-01-04T02:01:22.744Z,16.50
2019-01-04T02:03:53.467Z,16.55
2019-01-04T02:06:25.292Z,16.55
2019-01-04T02:08:56.832Z,16.54
2019-01-04T02:11:28.401Z,16.61
2019-01-04T02:14:00.409Z,16.53
2019-01-04T02:16:32.073Z,16.59
2019-01-04T02:19:03.832Z,16.62
2019-01-04T02:21:35.593Z,16.58
2019-01-04T02:24:07.309Z,16.53
2019-01-04T02:26:38.820Z,16.53
2019-01-04T02:29:10.491Z,16.69
2019-01-04T02:31:42.308Z,16.65
2019-01-04T02:34:14.598Z,16.65
2019-01-04T02:36:46.305Z,16.52
2019-01-04T02:39:17.814Z,16.52
2019-01-04T02:41:49.600Z,16.52
2019-01-04T02:44:21.367Z,16.70
2019-01-04T02:46:53.318Z,16.70
2019-01-04T02:49:24.834Z,16.67
2019-01-04T02:51:56.786Z,16.66
2019-01-04T02:54:28.787Z,16.80
2019-01-04T02:57:00.340Z,16.78
2019-01-04T02:59:31.891Z,16.76
2019-01-04T03:02:05.425Z,16.85
2019-01-04T03:04:37.069Z,16.72
2019-01-04T03:07:08.786Z,16.80
2019-01-04T03:09:40.412Z,16.83
2019-01-04T03:12:12.070Z,16.68
2019-01-04T03:14:43.821Z,16.65
2019-01-04T03:17:15.613Z,16.69
2019-01-04T03:19:47.345Z,16.62
2019-01-04T03:22:19.060Z,16.62
2019-01-04T03:24:50.754Z,16.72
2019-01-04T03:27:21.444Z,16.81
2019-01-04T03:29:53.053Z,16.80
2019-01-04T03:32:24.716Z,16.70
2019-01-04T03:34:55.491Z,16.55
2019-01-04T03:37:27.302Z,16.50
2019-01-04T03:39:58.845Z,16.65
2019-01-04T03:42:30.582Z,16.71
2019-01-04T03:45:02.130Z,16.65
2019-01-04T03:47:33.756Z,16.68
2019-01-04T03:50:04.495Z,16.52
2019-01-04T03:52:36.301Z,16.62
2019-01-04T03:55:08.061Z,16.63
2019-01-04T03:57:39.760Z,16.70
2019-01-04T04:00:10.467Z,16.70
2019-01-04T04:02:42.333Z,16.65
2019-01-04T04:05:14.353Z,16.59
2019-01-04T04:07:47.379Z,16.49
2019-01-04T04:10:19.312Z,16.59
2019-01-04T04:12:50.797Z,16.64
2019-01-04T04:15:22.552Z,16.58
2019-01-04T04:17:54.318Z,16.53
2019-01-04T04:20:26.310Z,16.53
2019-01-04T04:22:57.837Z,16.65
2019-01-04T04:25:29.586Z,16.66
2019-01-04T04:28:01.312Z,16.61
2019-01-04T04:30:32.894Z,16.61
2019-01-04T04:33:04.381Z,16.61
2019-01-04T04:35:36.082Z,16.63
2019-01-04T04:38:07.789Z,16.61
2019-01-04T04:40:38.611Z,16.73
2019-01-04T04:43:09.734Z,16.70
2019-01-04T04:45:40.933Z,16.70
2019-01-04T04:48:12.786Z,16.65
2019-01-04T04:50:43.875Z,16.76
2019-01-04T04:53:15.766Z,16.84
2019-01-04T04:55:46.464Z,16.68
2019-01-04T04:58:18.325Z,16.55
2019-01-04T05:00:50.409Z,16.61
2019-01-04T05:03:22.621Z,16.58
2019-01-04T05:05:54.373Z,16.57
2019-01-04T05:08:26.075Z,16.57
2019-01-04T05:10:58.313Z,16.72
2019-01-04T05:13:30.310Z,16.75
2019-01-04T05:16:02.363Z,16.75
2019-01-04T05:18:34.067Z,16.72
2019-01-04T05:21:06.301Z,16.67
2019-01-04T05:23:37.833Z,16.59
2019-01-04T05:26:09.767Z,16.65
2019-01-04T05:28:41.775Z,16.70
2019-01-04T05:31:12.496Z,16.69
2019-01-04T05:33:44.317Z,16.78
2019-01-04T05:36:15.861Z,16.78
2019-01-04T05:38:47.395Z,16.80
2019-01-04T05:41:19.374Z,16.70
2019-01-04T05:43:51.068Z,16.74
2019-01-04T05:46:22.795Z,16.61
2019-01-04T05:48:53.703Z,16.78
2019-01-04T05:51:24.456Z,16.72
2019-01-04T05:54:00.968Z,16.71
2019-01-04T05:56:42.393Z,16.69
2019-01-04T05:59:14.767Z,16.69
2019-01-04T06:01:45.485Z,16.70
2019-01-04T06:04:17.318Z,16.71
2019-01-04T06:06:49.988Z,16.76
2019-01-04T06:09:31.319Z,16.81
2019-01-04T06:12:02.840Z,16.74
2019-01-04T06:14:34.751Z,16.75
2019-01-04T06:17:05.877Z,16.75
2019-01-04T06:19:37.391Z,16.67
2019-01-04T06:22:09.068Z,16.76
2019-01-04T06:24:40.805Z,16.74
2019-01-04T06:29:35.420Z,16.78
2019-01-04T06:32:07.088Z,16.67
2019-01-04T06:34:38.758Z,16.65
2019-01-04T06:37:10.402Z,16.63
2019-01-04T06:39:42.053Z,16.61
2019-01-04T06:43:22.643Z,16.69
2019-01-04T06:45:54.414Z,16.72
2019-01-04T06:48:26.316Z,16.72
2019-01-04T06:50:58.081Z,16.74
2019-01-04T06:53:29.765Z,16.74
2019-01-04T06:56:02.337Z,16.66
2019-01-04T06:58:34.076Z,16.67
2019-01-04T07:01:05.769Z,16.70
2019-01-04T07:03:37.374Z,16.75
2019-01-04T07:06:09.077Z,16.78
2019-01-04T07:08:40.751Z,16.82
2019-01-04T07:11:11.521Z,16.91
2019-01-04T07:13:43.433Z,16.98
2019-01-04T07:16:15.075Z,16.98
2019-01-04T07:18:46.792Z,17.04
2019-01-04T07:21:17.713Z,17.05
2019-01-04T07:23:48.877Z,16.96
2019-01-04T07:26:20.434Z,16.97
2019-01-04T07:28:52.072Z,17.05
2019-01-04T07:31:23.786Z,16.97
2019-01-04T07:33:55.922Z,16.95
2019-01-04T07:36:27.788Z,16.94
2019-01-04T07:38:59.614Z,16.97
2019-01-04T07:41:30.663Z,17.03
2019-01-04T07:44:01.920Z,17.09
2019-01-04T07:46:37.462Z,16.97
2019-01-04T07:49:09.430Z,17.03
2019-01-04T07:51:41.025Z,17.04
2019-01-04T07:54:12.912Z,16.96
2019-01-04T07:56:45.304Z,16.91
2019-01-04T07:59:17.317Z,16.92
2019-01-04T08:01:48.845Z,16.94
2019-01-04T08:04:20.590Z,16.93
2019-01-04T08:06:52.311Z,17.01
2019-01-04T08:09:23.890Z,17.01
2019-01-04T08:11:55.404Z,16.98
2019-01-04T08:14:27.047Z,17.01
2019-01-04T08:16:58.781Z,17.15
2019-01-04T08:19:29.758Z,17.09
2019-01-04T08:22:01.416Z,17.10
2019-01-04T08:24:33.069Z,17.08
2019-01-04T08:27:04.778Z,17.12
2019-01-04T08:29:35.490Z,17.13
2019-01-04T08:32:07.310Z,17.08
2019-01-04T08:34:39.353Z,17.04
2019-01-04T08:37:11.076Z,17.09
2019-01-04T08:39:42.787Z,17.22
2019-01-04T08:42:13.491Z,17.17
2019-01-04T08:44:45.373Z,17.20
2019-01-04T08:47:17.032Z,17.23
2019-01-04T08:49:48.993Z,17.32
2019-01-04T08:52:20.769Z,17.27
2019-01-04T08:54:51.686Z,17.27
2019-01-04T08:57:22.485Z,17.22
2019-01-04T08:59:54.323Z,17.20
2019-01-04T09:02:25.841Z,17.30
2019-01-04T09:04:57.387Z,17.23
2019-01-04T09:07:29.308Z,17.22
2019-01-04T09:10:00.895Z,17.26
2019-01-04T09:12:32.629Z,17.34
2019-01-04T09:15:04.786Z,17.34
2019-01-04T09:17:35.456Z,17.34
2019-01-04T09:20:10.468Z,17.34
2019-01-04T09:22:43.055Z,17.50
2019-01-04T09:25:14.749Z,17.53
2019-01-04T09:27:45.463Z,17.58
2019-01-04T09:30:18.061Z,17.56
2019-01-04T09:32:49.712Z,17.67
2019-01-04T09:35:21.625Z,17.75
2019-01-04T09:37:54.779Z,17.83
2019-01-04T09:40:30.330Z,17.95
2019-01-04T09:43:06.314Z,18.00
2019-01-04T09:45:37.866Z,17.88
2019-01-04T09:48:09.854Z,17.84
2019-01-04T09:50:41.729Z,17.78
2019-01-04T09:53:12.488Z,17.76
2019-01-04T09:55:44.300Z,17.78
2019-01-04T09:58:16.749Z,17.71
2019-01-04T10:00:47.701Z,17.75
2019-01-04T10:03:18.484Z,17.77
2019-01-04T10:05:50.297Z,17.84
2019-01-04T10:08:22.307Z,17.86
2019-01-04T10:10:54.450Z,17.92
2019-01-04T10:13:26.066Z,17.97
2019-01-04T10:15:57.775Z,17.94
2019-01-04T10:18:28.448Z,17.91
2019-01-04T10:21:00.278Z,17.92
2019-01-04T10:23:31.912Z,17.96
2019-01-04T10:26:03.749Z,17.93
2019-01-04T10:28:34.635Z,17.99
2019-01-04T10:31:06.479Z,17.96
2019-01-04T10:33:38.309Z,17.96
2019-01-04T10:36:09.853Z,17.95
2019-01-04T10:38:41.388Z,17.90
2019-01-04T10:41:13.063Z,17.99
2019-01-04T10:43:44.804Z,17.97
2019-01-04T10:46:16.564Z,17.97
2019-01-04T10:48:48.334Z,17.93
2019-01-04T10:51:19.873Z,17.93
2019-01-04T10:53:51.741Z,17.92
2019-01-04T10:56:23.587Z,17.88
2019-01-04T10:58:55.293Z,17.88
2019-01-04T11:01:26.886Z,17.88
2019-01-04T11:03:58.806Z,17.90
2019-01-04T11:06:31.908Z,17.86
2019-01-04T11:09:04.586Z,17.87
2019-01-04T11:11:36.433Z,17.79
2019-01-04T11:14:08.648Z,17.79
2019-01-04T11:16:40.359Z,17.84
2019-01-04T11:19:12.602Z,17.84
2019-01-04T11:21:44.848Z,17.81
2019-01-04T11:25:15.766Z,17.81
2019-01-04T11:28:18.398Z,17.80
2019-01-04T11:31:34.778Z,17.71
2019-01-04T11:34:54.243Z,17.80
2019-01-04T11:37:58.762Z,17.90
2019-01-04T11:41:16.680Z,17.81
2019-01-04T11:44:49.251Z,17.81
2019-01-04T11:48:51.306Z,17.82
2019-01-04T11:52:31.273Z,17.80
2019-01-04T11:55:02.754Z,17.69
2019-01-04T11:57:33.639Z,17.62
2019-01-04T12:00:05.843Z,17.72
2019-01-04T12:02:37.389Z,17.72
2019-01-04T12:05:09.742Z,17.76
2019-01-04T12:07:41.739Z,17.75
2019-01-04T12:10:12.843Z,17.68
2019-01-04T12:12:44.626Z,17.62
2019-01-04T12:15:15.922Z,17.63
2019-01-04T12:17:47.837Z,17.68
2019-01-04T12:20:19.601Z,17.75
2019-01-04T12:22:51.409Z,17.69
2019-01-04T12:25:23.044Z,17.69
2019-01-04T12:27:54.786Z,17.72
2019-01-04T12:30:25.474Z,17.69
2019-01-04T12:32:57.385Z,17.72
2019-01-04T12:35:29.770Z,17.71
2019-01-04T12:38:00.484Z,17.72
2019-01-04T12:40:32.578Z,17.77
2019-01-04T12:43:04.645Z,17.70
2019-01-04T12:45:36.334Z,17.77
2019-01-04T12:48:08.570Z,17.77
2019-01-04T12:50:40.778Z,17.76
2019-01-04T12:53:12.574Z,17.76
2019-01-04T12:55:45.306Z,17.55
2019-01-04T12:58:17.021Z,17.55
2019-01-04T13:00:48.737Z,17.62
2019-01-04T13:03:19.457Z,17.69
2019-01-04T13:05:51.444Z,17.77
2019-01-04T13:08:23.319Z,17.83
2019-01-04T13:10:54.862Z,17.83
2019-01-04T13:13:26.399Z,17.81
2019-01-04T13:15:58.062Z,17.79
2019-01-04T13:18:29.767Z,17.80
2019-01-04T13:21:00.467Z,17.83
2019-01-04T13:23:32.418Z,17.86
2019-01-04T13:26:04.313Z,17.85
2019-01-04T13:28:35.860Z,17.82
2019-01-04T13:31:07.372Z,17.80
2019-01-04T13:33:39.058Z,17.81
2019-01-04T13:36:10.765Z,17.80
2019-01-04T13:38:41.479Z,17.82
2019-01-04T13:41:13.293Z,17.82
2019-01-04T13:43:45.877Z,17.75
2019-01-04T13:46:17.755Z,17.77
2019-01-04T13:59:54.021Z,17.67
2019-01-04T14:02:25.770Z,17.63
2019-01-04T14:04:56.512Z,17.64
2019-01-04T14:07:28.307Z,17.68
2019-01-04T14:09:59.824Z,17.65
2019-01-04T14:12:31.395Z,17.62
2019-01-04T14:15:03.342Z,17.60
2019-01-04T14:17:35.037Z,17.60
2019-01-04T14:20:07.754Z,17.60
2019-01-04T14:22:38.601Z,17.57
2019-01-04T14:25:11.306Z,17.62
2019-01-04T14:27:43.312Z,17.62
2019-01-04T14:30:15.639Z,17.64
2019-01-04T14:32:47.367Z,17.66
2019-01-04T14:35:19.302Z,17.66
2019-01-04T14:37:51.292Z,17.68
2019-01-04T14:40:22.983Z,17.69
2019-01-04T14:42:54.418Z,17.69
2019-01-04T14:45:26.017Z,17.68
2019-01-04T14:47:57.745Z,17.71
2019-01-04T14:50:28.501Z,17.75
2019-01-04T14:53:00.314Z,17.72
2019-01-04T14:55:31.867Z,17.67
2019-01-04T14:58:03.748Z,17.59
2019-01-04T15:00:34.635Z,17.61
2019-01-04T15:03:06.345Z,17.72
2019-01-04T15:05:38.050Z,17.72
2019-01-04T15:08:09.789Z,18.26
2019-01-04T15:10:40.445Z,18.67
2019-01-04T15:13:12.066Z,18.76
2019-01-04T15:15:43.766Z,18.64
2019-01-04T15:18:14.481Z,18.47
2019-01-04T15:20:46.311Z,18.58
2019-01-04T15:23:18.403Z,18.67
2019-01-04T15:25:50.048Z,18.49
2019-01-04T15:28:21.880Z,18.29
2019-01-04T15:30:53.411Z,18.24
2019-01-04T15:33:25.304Z,18.47
2019-01-04T15:35:56.859Z,18.69
2019-01-04T15:38:28.724Z,18.88
2019-01-04T15:40:59.440Z,19.28
2019-01-04T15:43:31.589Z,19.66
2019-01-04T15:46:04.337Z,19.99
2019-01-04T15:48:36.366Z,19.99
2019-01-04T15:51:08.004Z,20.04
2019-01-04T15:53:39.746Z,19.94
2019-01-04T15:56:10.452Z,19.95
2019-01-04T15:58:42.073Z,19.98
2019-01-04T16:01:13.736Z,20.00
2019-01-04T16:03:44.486Z,20.01
2019-01-04T16:06:16.877Z,19.93
2019-01-04T16:08:48.744Z,19.91
2019-01-04T16:11:20.715Z,19.79
2019-01-04T16:13:51.445Z,19.81
2019-01-04T16:16:23.061Z,19.72
2019-01-04T16:18:54.794Z,19.65
2019-01-04T16:21:25.484Z,19.62
2019-01-04T16:23:57.318Z,19.49
2019-01-04T16:26:29.067Z,19.37
2019-01-04T16:29:00.824Z,19.25
2019-01-04T16:31:32.384Z,19.16
2019-01-04T16:34:04.077Z,19.17
2019-01-04T16:36:36.309Z,19.08
2019-01-04T16:39:10.304Z,18.95
2019-01-04T16:41:41.824Z,18.79
2019-01-04T16:44:13.585Z,18.76
2019-01-04T16:46:45.481Z,18.57
2019-01-04T16:49:17.301Z,18.57
2019-01-04T16:51:48.818Z,18.53
2019-01-04T16:54:20.468Z,18.33
2019-01-04T16:56:52.070Z,18.18
2019-01-04T16:59:23.990Z,18.43
2019-01-04T17:01:55.687Z,18.63
2019-01-04T17:04:27.100Z,18.63
2019-01-04T17:06:58.721Z,18.52
2019-01-04T17:09:29.503Z,18.48
2019-01-04T17:12:01.312Z,18.46
2019-01-04T17:14:33.310Z,18.46
2019-01-04T17:17:05.586Z,18.29
2019-01-04T17:19:40.780Z,18.38
2019-01-04T17:22:10.773Z,18.38
2019-01-04T17:24:42.255Z,18.29
2019-01-04T17:27:13.828Z,18.25
2019-01-04T17:29:45.459Z,18.20
2019-01-04T17:32:17.066Z,18.17
2019-01-04T17:34:49.052Z,18.20
2019-01-04T17:37:20.778Z,18.13
2019-01-04T17:39:52.400Z,18.12
2019-01-04T17:42:24.483Z,18.14
2019-01-04T17:44:56.059Z,18.34
2019-01-04T17:47:28.309Z,18.64
2019-01-04T17:49:59.860Z,18.83
2019-01-04T17:52:31.623Z,18.93
2019-01-04T17:55:03.346Z,19.08
2019-01-04T17:57:35.040Z,19.08
2019-01-04T18:00:09.651Z,19.07
2019-01-04T18:02:41.333Z,18.94
2019-01-04T18:05:13.075Z,18.77
2019-01-04T18:07:44.786Z,18.73
2019-01-04T18:10:15.460Z,18.66
2019-01-04T18:12:47.354Z,18.54
2019-01-04T18:15:19.041Z,18.43
2019-01-04T18:17:50.777Z,18.37
2019-01-04T18:20:22.361Z,18.29
2019-01-04T18:22:54.465Z,18.14
2019-01-04T18:25:26.310Z,18.03
2019-01-04T18:27:58.347Z,17.98
2019-01-04T18:30:30.077Z,17.93
2019-01-04T18:33:01.778Z,17.93
2019-01-04T18:35:32.505Z,17.96
2019-01-04T18:38:04.757Z,17.84
2019-01-04T18:40:36.782Z,17.76
2019-01-04T18:43:07.450Z,17.71
2019-01-04T18:45:39.337Z,17.66
2019-01-04T18:48:10.889Z,17.68
2019-01-04T18:50:42.388Z,17.97
2019-01-04T18:53:14.406Z,18.13
2019-01-04T18:55:46.066Z,18.32
2019-01-04T18:58:18.304Z,18.40
2019-01-04T19:00:50.745Z,18.32
2019-01-04T19:03:21.474Z,18.37
2019-01-04T19:05:53.270Z,18.28
2019-01-04T19:08:25.314Z,18.28
2019-01-04T19:10:56.799Z,18.17
2019-01-04T19:13:28.744Z,18.20
2019-01-04T19:15:59.480Z,18.14
2019-01-04T19:18:31.301Z,18.12
2019-01-04T19:21:02.856Z,18.11
2019-01-04T19:23:39.556Z,18.10
2019-01-04T19:26:08.308Z,18.08
2019-01-04T19:28:39.902Z,18.01
2019-01-04T19:31:12.346Z,17.92
2019-01-04T19:33:44.066Z,17.83
2019-01-04T19:36:15.745Z,17.55
2019-01-04T19:38:46.474Z,17.92
2019-01-04T19:41:18.485Z,18.18
2019-01-04T19:43:50.385Z,18.40
2019-01-04T19:46:22.056Z,18.61
2019-01-04T19:48:53.744Z,18.76
2019-01-04T19:51:24.687Z,18.80
2019-01-04T19:53:55.467Z,18.87
2019-01-04T19:56:27.302Z,18.91
2019-01-04T19:58:59.024Z,18.97
2019-01-04T20:01:30.778Z,18.92
2019-01-04T20:04:01.604Z,18.82
2019-01-04T20:08:02.372Z,18.74
2019-01-04T20:12:18.340Z,18.74
2019-01-04T20:16:38.308Z,18.57
2019-01-04T20:19:29.736Z,18.42
2019-01-04T20:22:22.862Z,18.28
2019-01-04T20:25:10.066Z,18.14
2019-01-04T20:28:03.690Z,18.09
2019-01-04T20:30:59.770Z,17.90
2019-01-04T20:33:59.376Z,17.90
2019-01-04T20:36:57.748Z,17.88
2019-01-04T20:39:50.267Z,17.91
2019-01-04T20:42:56.068Z,17.86
2019-01-04T20:45:42.841Z,17.89
2019-01-04T20:48:35.798Z,17.90
2019-01-04T20:51:38.391Z,18.41
2019-01-04T20:54:28.637Z,18.61
2019-01-04T20:57:18.433Z,18.46
2019-01-04T21:00:11.568Z,18.46
2019-01-04T21:03:14.062Z,18.42
2019-01-04T21:06:12.296Z,18.42
2019-01-04T21:09:12.052Z,18.46
2019-01-04T21:12:14.252Z,18.42
2019-01-04T21:15:07.439Z,18.29
2019-01-04T21:17:56.655Z,18.30
2019-01-04T21:21:03.292Z,18.24
2019-01-04T21:24:02.892Z,18.24
2019-01-04T21:26:56.268Z,18.32
2019-01-04T21:29:53.827Z,18.31
2019-01-04T21:32:47.296Z,18.31
2019-01-04T21:35:40.304Z,18.30
2019-01-04T21:38:29.533Z,18.27
2019-01-04T21:41:23.306Z,18.20
2019-01-04T21:44:26.306Z,18.21
2019-01-04T21:47:32.406Z,18.14
2019-01-04T21:50:27.776Z,18.08
2019-01-04T21:53:17.369Z,18.11
2019-01-04T21:56:10.766Z,18.12
2019-01-04T21:59:12.263Z,18.11
2019-01-04T22:02:02.305Z,18.10
2019-01-04T22:04:51.530Z,18.11
2019-01-04T22:07:41.301Z,18.12
2019-01-04T22:10:34.380Z,18.12
2019-01-04T22:13:30.382Z,18.09
2019-01-04T22:16:19.475Z,18.10
2019-01-04T22:19:08.657Z,18.07
2019-01-04T22:22:11.293Z,18.02
2019-01-04T22:25:00.541Z,18.02
2019-01-04T22:27:50.055Z,17.89
2019-01-04T22:30:38.805Z,17.89
2019-01-04T22:33:26.573Z,17.98
2019-01-04T22:36:16.749Z,18.09
2019-01-04T22:39:09.255Z,18.09
2019-01-04T22:41:59.557Z,18.10
2019-01-04T22:44:53.296Z,18.06
2019-01-04T22:47:44.881Z,18.03
2019-01-04T22:50:34.300Z,18.04
2019-01-04T22:53:25.370Z,18.04
2019-01-04T22:56:18.373Z,17.99
2019-01-04T22:59:14.620Z,18.03
2019-01-04T23:02:05.300Z,18.00
2019-01-04T23:04:54.778Z,18.00
2019-01-04T23:07:53.310Z,18.09
2019-01-04T23:10:56.038Z,18.08
2019-01-04T23:13:49.294Z,18.10
2019-01-04T23:16:38.837Z,18.03
2019-01-04T23:19:34.053Z,18.04
2019-01-04T23:22:44.564Z,18.06
2019-01-04T23:25:38.302Z,18.10
2019-01-04T23:28:27.778Z,18.10
2019-01-04T23:31:23.749Z,18.04
2019-01-04T23:34:12.253Z,18.00
2019-01-04T23:37:11.667Z,17.97
2019-01-04T23:40:13.298Z,17.97
2019-01-04T23:43:10.292Z,17.97
2019-01-04T23:46:11.740Z,17.99
2019-01-04T23:48:51.260Z,18.04
2019-01-04T23:51:40.397Z,17.98
2019-01-04T23:54:30.021Z,18.06
2019-01-04T23:57:19.738Z,18.08
